createdAt,value
2022-09-28T00:01:13.725Z,18.98
2022-09-28T00:04:06.416Z,18.94
2022-09-28T00:06:33.325Z,18.93
2022-09-28T00:09:00.101Z,18.90
2022-09-28T00:11:28.476Z,18.78
2022-09-28T00:13:58.960Z,18.80
2022-09-28T00:16:29.517Z,18.76
2022-09-28T00:18:56.527Z,18.74
2022-09-28T00:21:25.559Z,18.68
2022-09-28T00:23:54.252Z,18.66
2022-09-28T00:26:21.091Z,18.64
2022-09-28T00:28:51.346Z,18.64
2022-09-28T00:31:18.306Z,18.49
2022-09-28T00:33:45.207Z,18.46
2022-09-28T00:36:12.045Z,18.47
2022-09-28T00:38:38.887Z,18.56
2022-09-28T00:41:06.131Z,18.61
2022-09-28T00:43:33.028Z,18.76
2022-09-28T00:46:10.402Z,18.88
2022-09-28T00:48:42.989Z,18.86
2022-09-28T00:51:12.825Z,18.83
2022-09-28T00:53:44.133Z,18.81
2022-09-28T00:56:16.953Z,18.64
2022-09-28T00:58:47.483Z,18.63
2022-09-28T01:01:15.895Z,18.61
2022-09-28T01:03:43.706Z,18.63
2022-09-28T01:06:14.924Z,18.61
2022-09-28T01:08:44.917Z,18.61
2022-09-28T01:11:14.074Z,18.59
2022-09-28T01:13:41.881Z,18.66
2022-09-28T01:16:19.599Z,18.71
2022-09-28T01:19:02.408Z,18.70
2022-09-28T01:21:49.902Z,18.67
2022-09-28T01:24:39.879Z,18.66
2022-09-28T01:27:15.494Z,18.59
2022-09-28T01:29:54.076Z,18.55
2022-09-28T01:32:32.462Z,18.49
2022-09-28T01:35:07.536Z,18.49
2022-09-28T01:37:44.792Z,18.40
2022-09-28T01:40:13.677Z,18.24
2022-09-28T01:42:46.926Z,18.25
2022-09-28T01:45:22.033Z,18.18
2022-09-28T01:48:24.546Z,18.19
2022-09-28T01:50:57.752Z,18.29
2022-09-28T01:53:35.765Z,18.42
2022-09-28T01:56:11.426Z,18.46
2022-09-28T01:58:47.267Z,18.47
2022-09-28T02:01:22.670Z,18.56
2022-09-28T02:04:01.001Z,18.53
2022-09-28T02:06:34.692Z,18.53
2022-09-28T02:09:10.390Z,18.39
2022-09-28T02:11:48.084Z,18.28
2022-09-28T02:14:18.500Z,18.19
2022-09-28T02:16:50.465Z,18.10
2022-09-28T02:19:28.152Z,17.99
2022-09-28T02:22:03.524Z,18.01
2022-09-28T02:24:39.048Z,17.98
2022-09-28T02:27:16.059Z,17.99
2022-09-28T02:29:44.464Z,17.99
2022-09-28T02:32:11.775Z,18.01
2022-09-28T02:34:39.030Z,18.01
2022-09-28T02:37:06.143Z,17.96
2022-09-28T02:39:33.042Z,17.99
2022-09-28T02:42:15.338Z,18.05
2022-09-28T02:45:11.818Z,17.99
2022-09-28T02:48:02.383Z,17.95
2022-09-28T02:50:42.998Z,17.99
2022-09-28T02:53:44.898Z,18.10
2022-09-28T02:56:33.728Z,18.13
2022-09-28T02:59:15.454Z,18.22
2022-09-28T03:01:58.583Z,18.21
2022-09-28T03:04:37.682Z,18.18
2022-09-28T03:07:24.265Z,18.16
2022-09-28T03:10:01.093Z,18.08
2022-09-28T03:12:29.013Z,18.02
2022-09-28T03:18:02.904Z,18.10
2022-09-28T03:20:32.106Z,18.22
2022-09-28T03:23:23.165Z,18.33
2022-09-28T03:25:46.435Z,18.42
2022-09-28T03:28:13.431Z,18.56
2022-09-28T03:30:41.036Z,18.57
2022-09-28T03:33:09.408Z,18.64
2022-09-28T03:35:36.370Z,18.67
2022-09-28T03:38:03.308Z,18.70
2022-09-28T03:40:32.463Z,18.78
2022-09-28T03:43:00.667Z,18.81
2022-09-28T03:45:27.769Z,18.86
2022-09-28T03:48:26.680Z,18.91
2022-09-28T03:50:57.326Z,18.94
2022-09-28T03:53:25.242Z,19.01
2022-09-28T03:55:53.517Z,19.04
2022-09-28T03:58:21.473Z,19.07
2022-09-28T04:00:54.976Z,19.08
2022-09-28T04:03:23.749Z,19.14
2022-09-28T04:05:52.668Z,19.12
2022-09-28T04:08:20.105Z,19.15
2022-09-28T04:10:47.262Z,19.15
2022-09-28T04:13:14.636Z,19.17
2022-09-28T04:15:42.615Z,19.15
2022-09-28T04:18:10.358Z,19.15
2022-09-28T04:21:04.242Z,19.17
2022-09-28T04:23:34.708Z,19.17
2022-09-28T04:26:02.116Z,19.15
2022-09-28T04:28:29.551Z,19.12
2022-09-28T04:30:56.481Z,19.15
2022-09-28T04:33:23.466Z,19.08
2022-09-28T04:35:50.357Z,19.06
2022-09-28T04:38:35.670Z,19.04
2022-09-28T04:41:06.155Z,19.03
2022-09-28T04:43:33.764Z,18.98
2022-09-28T04:46:02.403Z,18.98
2022-09-28T04:48:38.446Z,19.00
2022-09-28T04:51:13.292Z,19.00
2022-09-28T04:53:41.588Z,19.00
2022-09-28T04:56:12.624Z,19.03
2022-09-28T04:58:41.204Z,18.98
2022-09-28T05:01:14.233Z,18.96
2022-09-28T05:04:01.809Z,18.93
2022-09-28T05:06:38.298Z,18.94
2022-09-28T05:09:08.400Z,18.93
2022-09-28T05:11:35.665Z,18.94
2022-09-28T05:14:04.553Z,18.87
2022-09-28T05:16:31.683Z,18.86
2022-09-28T05:19:17.486Z,18.84
2022-09-28T05:21:45.183Z,18.81
2022-09-28T05:24:13.641Z,18.80
2022-09-28T05:26:43.505Z,18.76
2022-09-28T05:29:11.456Z,18.73
2022-09-28T05:31:56.825Z,18.71
2022-09-28T05:34:26.706Z,18.71
2022-09-28T05:36:54.350Z,18.68
2022-09-28T05:39:22.672Z,18.68
2022-09-28T05:41:49.830Z,18.60
2022-09-28T05:44:17.007Z,18.50
2022-09-28T05:46:44.537Z,18.39
2022-09-28T05:49:12.572Z,18.40
2022-09-28T05:51:39.492Z,18.40
2022-09-28T05:54:33.532Z,18.35
2022-09-28T05:57:01.114Z,18.32
2022-09-28T05:59:27.916Z,18.40
2022-09-28T06:01:55.289Z,18.43
2022-09-28T06:04:22.364Z,18.33
2022-09-28T06:06:49.513Z,18.28
2022-09-28T06:09:16.679Z,18.06
2022-09-28T06:11:48.141Z,18.06
2022-09-28T06:14:37.856Z,18.06
2022-09-28T06:17:04.949Z,18.09
2022-09-28T06:19:32.054Z,18.10
2022-09-28T06:22:07.498Z,18.12
2022-09-28T06:24:41.792Z,18.02
2022-09-28T06:27:10.218Z,18.02
2022-09-28T06:29:37.177Z,18.04
2022-09-28T06:32:04.512Z,17.98
2022-09-28T06:34:31.357Z,18.02
2022-09-28T06:36:59.057Z,17.96
2022-09-28T06:39:25.861Z,17.95
2022-09-28T06:41:52.692Z,17.99
2022-09-28T06:44:22.608Z,18.02
2022-09-28T06:47:07.957Z,18.06
2022-09-28T06:49:52.327Z,18.08
2022-09-28T06:52:39.316Z,18.10
2022-09-28T06:55:29.943Z,18.06
2022-09-28T06:57:59.110Z,18.06
2022-09-28T07:00:27.698Z,18.09
2022-09-28T07:02:55.183Z,18.13
2022-09-28T07:05:51.709Z,18.09
2022-09-28T07:08:33.378Z,18.12
2022-09-28T07:11:20.486Z,18.04
2022-09-28T07:14:03.737Z,18.06
2022-09-28T07:16:59.462Z,18.13
2022-09-28T07:19:20.061Z,18.13
2022-09-28T07:21:54.500Z,18.24
2022-09-28T07:24:26.838Z,18.24
2022-09-28T07:26:56.497Z,18.22
2022-09-28T07:29:36.077Z,18.28
2022-09-28T07:32:22.599Z,18.29
2022-09-28T07:34:59.749Z,18.30
2022-09-28T07:37:43.277Z,18.36
2022-09-28T07:40:11.790Z,18.52
2022-09-28T07:42:39.405Z,18.59
2022-09-28T07:45:08.154Z,18.67
2022-09-28T07:47:36.401Z,18.70
2022-09-28T07:50:13.348Z,18.73
2022-09-28T07:52:53.352Z,18.77
2022-09-28T07:55:27.779Z,18.83
2022-09-28T07:58:13.333Z,18.80
2022-09-28T08:00:56.390Z,18.87
2022-09-28T08:03:49.629Z,18.88
2022-09-28T08:06:17.324Z,18.98
2022-09-28T08:08:45.111Z,19.04
2022-09-28T08:19:52.594Z,19.42
2022-09-28T08:22:20.427Z,19.55
2022-09-28T08:24:50.630Z,19.61
2022-09-28T08:27:17.637Z,19.69
2022-09-28T08:29:45.313Z,19.76
2022-09-28T08:32:38.749Z,19.82
2022-09-28T08:35:25.467Z,19.97
2022-09-28T08:38:11.304Z,20.10
2022-09-28T08:41:11.725Z,20.16
2022-09-28T08:44:13.237Z,20.21
2022-09-28T08:47:17.122Z,20.20
2022-09-28T08:50:02.820Z,20.08
2022-09-28T08:52:53.777Z,20.09
2022-09-28T08:55:47.261Z,20.16
2022-09-28T08:58:19.379Z,20.34
2022-09-28T09:00:48.859Z,20.50
2022-09-28T09:03:40.610Z,20.51
2022-09-28T09:06:50.667Z,20.65
2022-09-28T09:09:42.864Z,20.81
2022-09-28T09:12:19.129Z,20.91
2022-09-28T09:15:13.044Z,20.98
2022-09-28T09:17:56.439Z,20.91
2022-09-28T09:20:47.506Z,20.88
2022-09-28T09:26:37.532Z,20.90
2022-09-28T09:29:36.604Z,20.98
2022-09-28T09:32:29.508Z,21.01
2022-09-28T09:35:30.515Z,20.98
2022-09-28T09:38:41.520Z,20.92
2022-09-28T09:42:00.022Z,20.99
2022-09-28T09:45:19.695Z,21.31
2022-09-28T09:48:02.401Z,21.60
2022-09-28T09:50:37.314Z,21.72
2022-09-28T09:53:14.799Z,21.84
2022-09-28T09:55:46.052Z,21.96
2022-09-28T09:58:31.324Z,22.41
2022-09-28T10:01:19.430Z,22.83
2022-09-28T10:04:17.671Z,23.16
2022-09-28T10:06:46.872Z,23.34
2022-09-28T10:09:22.751Z,23.81
2022-09-28T10:11:50.243Z,23.89
2022-09-28T10:14:22.582Z,24.08
2022-09-28T10:16:58.285Z,24.02
2022-09-28T10:19:48.529Z,24.05
2022-09-28T10:22:34.381Z,24.21
2022-09-28T10:25:12.622Z,24.25
2022-09-28T10:27:44.074Z,24.16
2022-09-28T10:30:19.264Z,24.11
2022-09-28T10:32:49.231Z,24.02
2022-09-28T10:35:24.680Z,24.01
2022-09-28T10:37:59.984Z,24.29
2022-09-28T10:40:51.332Z,25.24
2022-09-28T10:43:39.553Z,26.12
2022-09-28T10:46:20.240Z,26.40
2022-09-28T10:48:55.088Z,26.63
2022-09-28T10:51:41.492Z,26.97
2022-09-28T10:54:16.911Z,26.94
2022-09-28T10:56:52.148Z,27.05
2022-09-28T10:59:48.520Z,27.49
2022-09-28T11:02:36.607Z,28.18
2022-09-28T11:05:26.420Z,28.43
2022-09-28T11:07:57.685Z,28.16
2022-09-28T11:10:33.459Z,28.13
2022-09-28T11:13:11.637Z,28.21
2022-09-28T11:15:43.492Z,28.12
2022-09-28T11:18:26.795Z,28.07
2022-09-28T11:21:11.966Z,28.34
2022-09-28T11:23:43.358Z,28.58
2022-09-28T11:26:19.337Z,28.76
2022-09-28T11:28:51.582Z,28.95
2022-09-28T11:31:28.001Z,29.25
2022-09-28T11:34:24.902Z,29.67
2022-09-28T11:37:24.187Z,30.14
2022-09-28T11:40:01.827Z,30.45
2022-09-28T11:42:43.590Z,30.86
2022-09-28T11:45:38.558Z,31.10
2022-09-28T11:48:09.435Z,31.26
2022-09-28T11:50:48.444Z,31.37
2022-09-28T11:53:26.103Z,31.51
2022-09-28T11:56:08.842Z,31.58
2022-09-28T11:58:42.013Z,31.57
2022-09-28T12:01:24.299Z,31.63
2022-09-28T12:04:14.631Z,31.27
2022-09-28T12:06:50.704Z,31.20
2022-09-28T12:09:28.216Z,31.22
2022-09-28T12:12:06.588Z,31.15
2022-09-28T12:14:43.222Z,30.80
2022-09-28T12:17:21.256Z,30.48
2022-09-28T12:19:53.981Z,30.17
2022-09-28T12:22:31.883Z,30.03
2022-09-28T12:25:01.831Z,29.80
2022-09-28T12:27:40.016Z,29.60
2022-09-28T12:30:15.826Z,29.36
2022-09-28T12:32:49.370Z,29.29
2022-09-28T12:35:31.639Z,29.33
2022-09-28T12:38:29.192Z,29.18
2022-09-28T12:41:10.367Z,28.90
2022-09-28T12:43:58.664Z,28.64
2022-09-28T12:46:48.118Z,28.60
2022-09-28T12:50:36.215Z,28.74
2022-09-28T12:52:38.461Z,28.75
2022-09-28T12:55:37.399Z,28.61
2022-09-28T12:58:29.443Z,28.33
2022-09-28T13:01:07.368Z,27.97
2022-09-28T13:04:16.492Z,27.85
2022-09-28T13:06:56.130Z,27.90
2022-09-28T13:09:26.132Z,28.10
2022-09-28T13:12:15.400Z,28.27
2022-09-28T13:15:30.276Z,28.17
2022-09-28T13:18:08.261Z,27.90
2022-09-28T13:20:53.697Z,27.67
2022-09-28T13:23:25.584Z,27.38
2022-09-28T13:25:59.612Z,27.41
2022-09-28T13:28:31.309Z,27.55
2022-09-28T13:31:00.176Z,27.74
2022-09-28T13:33:33.986Z,27.90
2022-09-28T13:36:02.131Z,28.06
2022-09-28T13:38:46.758Z,28.21
2022-09-28T13:41:22.336Z,28.30
2022-09-28T13:44:41.574Z,28.44
2022-09-28T13:47:33.721Z,28.60
2022-09-28T13:50:17.687Z,28.69
2022-09-28T13:52:50.331Z,28.74
2022-09-28T13:55:28.877Z,28.69
2022-09-28T13:58:01.311Z,28.55
2022-09-28T14:00:38.398Z,28.41
2022-09-28T14:03:25.157Z,28.33
2022-09-28T14:06:08.865Z,28.34
2022-09-28T14:08:43.778Z,28.10
2022-09-28T14:11:54.683Z,28.09
2022-09-28T14:14:29.269Z,27.92
2022-09-28T14:18:05.746Z,27.69
2022-09-28T14:21:06.922Z,27.37
2022-09-28T14:24:00.158Z,27.16
2022-09-28T14:27:12.847Z,26.97
2022-09-28T14:29:40.624Z,26.74
2022-09-28T14:32:23.814Z,26.61
2022-09-28T14:34:58.167Z,26.41
2022-09-28T14:37:31.680Z,26.22
2022-09-28T14:39:58.541Z,26.03
2022-09-28T14:42:26.086Z,25.90
2022-09-28T14:45:35.713Z,25.82
2022-09-28T14:48:20.673Z,25.65
2022-09-28T14:50:48.576Z,25.51
2022-09-28T14:53:21.861Z,25.44
2022-09-28T14:55:54.001Z,25.37
2022-09-28T14:58:25.780Z,25.44
2022-09-28T15:01:01.410Z,25.47
2022-09-28T15:03:33.279Z,25.48
2022-09-28T15:06:00.385Z,25.49
2022-09-28T15:08:38.941Z,25.67
2022-09-28T15:11:14.123Z,25.81
2022-09-28T15:13:42.687Z,25.99
2022-09-28T15:16:13.669Z,26.20
2022-09-28T15:19:19.239Z,26.54
2022-09-28T15:21:46.643Z,26.64
2022-09-28T15:24:31.202Z,26.74
2022-09-28T15:26:58.965Z,26.71
2022-09-28T15:29:26.359Z,26.76
2022-09-28T15:31:54.613Z,26.86
2022-09-28T15:34:33.613Z,26.97
2022-09-28T15:37:00.669Z,26.88
2022-09-28T15:39:32.686Z,26.87
2022-09-28T15:42:00.638Z,26.92
2022-09-28T15:44:31.031Z,27.11
2022-09-28T15:47:11.844Z,27.37
2022-09-28T15:49:44.715Z,27.46
2022-09-28T15:52:38.914Z,27.32
2022-09-28T15:55:21.144Z,26.88
2022-09-28T15:57:49.286Z,26.51
2022-09-28T16:00:27.798Z,26.16
2022-09-28T16:03:01.406Z,25.88
2022-09-28T16:05:42.307Z,25.68
2022-09-28T16:08:17.316Z,25.40
2022-09-28T16:10:57.670Z,25.07
2022-09-28T16:14:03.045Z,24.72
2022-09-28T16:16:36.423Z,24.46
2022-09-28T16:19:05.130Z,24.26
2022-09-28T16:21:44.157Z,24.18
2022-09-28T16:24:22.023Z,24.08
2022-09-28T16:26:59.720Z,24.01
2022-09-28T16:29:34.830Z,23.95
2022-09-28T16:32:38.411Z,23.94
2022-09-28T16:35:28.303Z,23.89
2022-09-28T16:38:11.665Z,23.84
2022-09-28T16:40:41.221Z,23.74
2022-09-28T16:43:20.824Z,23.74
2022-09-28T16:45:47.762Z,23.64
2022-09-28T16:48:16.132Z,23.63
2022-09-28T16:50:42.962Z,23.60
2022-09-28T16:53:15.001Z,23.57
2022-09-28T16:55:41.795Z,23.44
2022-09-28T16:58:10.086Z,23.33
2022-09-28T17:00:39.279Z,23.34
2022-09-28T17:03:14.269Z,23.27
2022-09-28T17:05:42.407Z,23.16
2022-09-28T17:08:14.559Z,23.15
2022-09-28T17:11:13.126Z,23.09
2022-09-28T17:13:44.393Z,22.98
2022-09-28T17:16:14.113Z,22.96
2022-09-28T17:18:41.519Z,22.89
2022-09-28T17:21:13.632Z,22.85
2022-09-28T17:23:42.658Z,22.75
2022-09-28T17:26:20.147Z,22.72
2022-09-28T17:28:49.111Z,22.62
2022-09-28T17:31:17.113Z,22.59
2022-09-28T17:33:44.220Z,22.55
2022-09-28T17:36:16.409Z,22.51
2022-09-28T17:38:45.972Z,22.45
2022-09-28T17:41:20.014Z,22.38
2022-09-28T17:43:49.534Z,22.34
2022-09-28T17:46:27.732Z,22.28
2022-09-28T17:48:57.201Z,22.21
2022-09-28T17:51:23.926Z,22.15
2022-09-28T17:53:50.696Z,22.13
2022-09-28T17:56:17.476Z,22.08
2022-09-28T17:58:44.245Z,22.03
2022-09-28T18:01:12.744Z,21.98
2022-09-28T18:03:39.614Z,21.97
2022-09-28T18:06:11.241Z,21.94
2022-09-28T18:08:38.010Z,21.89
2022-09-28T18:11:05.372Z,21.84
2022-09-28T18:13:32.504Z,21.84
2022-09-28T18:15:59.633Z,21.82
2022-09-28T18:18:28.246Z,21.77
2022-09-28T18:20:55.392Z,21.77
2022-09-28T18:23:22.341Z,21.76
2022-09-28T18:25:49.246Z,21.73
2022-09-28T18:28:16.001Z,21.73
2022-09-28T18:30:44.916Z,21.69
2022-09-28T18:33:13.949Z,21.70
2022-09-28T18:35:51.070Z,21.72
2022-09-28T18:38:18.593Z,21.69
2022-09-28T18:40:45.993Z,21.69
2022-09-28T18:43:12.857Z,21.69
2022-09-28T18:45:39.885Z,21.67
2022-09-28T18:48:07.046Z,21.64
2022-09-28T18:50:34.105Z,21.66
2022-09-28T18:53:02.314Z,21.62
2022-09-28T18:55:29.220Z,21.63
2022-09-28T18:57:55.974Z,21.59
2022-09-28T19:00:22.836Z,21.60
2022-09-28T19:02:49.970Z,21.54
2022-09-28T19:05:17.087Z,21.52
2022-09-28T19:07:43.880Z,21.50
2022-09-28T19:10:12.281Z,21.38
2022-09-28T19:12:39.384Z,21.33
2022-09-28T19:15:07.572Z,21.33
2022-09-28T19:17:34.341Z,21.28
2022-09-28T19:20:01.737Z,21.25
2022-09-28T19:22:28.746Z,21.26
2022-09-28T19:24:55.829Z,21.31
2022-09-28T19:27:24.108Z,21.29
2022-09-28T19:29:51.532Z,21.31
2022-09-28T19:32:18.323Z,21.29
2022-09-28T19:34:45.309Z,21.29
2022-09-28T19:37:12.096Z,21.29
2022-09-28T19:39:38.844Z,21.26
2022-09-28T19:42:06.066Z,21.22
2022-09-28T19:44:35.543Z,21.22
2022-09-28T19:47:05.613Z,21.19
2022-09-28T19:49:34.037Z,21.21
2022-09-28T19:52:19.469Z,21.19
2022-09-28T19:54:48.415Z,21.21
2022-09-28T19:57:15.204Z,21.21
2022-09-28T19:59:43.876Z,21.22
2022-09-28T20:02:11.889Z,21.22
2022-09-28T20:04:38.932Z,21.21
2022-09-28T20:07:05.780Z,21.21
2022-09-28T20:09:32.763Z,21.19
2022-09-28T20:11:59.892Z,21.19
2022-09-28T20:14:32.070Z,21.19
2022-09-28T20:17:01.334Z,21.21
2022-09-28T20:19:28.125Z,21.18
2022-09-28T20:21:55.096Z,21.16
2022-09-28T20:24:21.990Z,21.16
2022-09-28T20:26:48.909Z,21.13
2022-09-28T20:29:15.701Z,21.09
2022-09-28T20:31:42.500Z,21.06
2022-09-28T20:34:12.674Z,21.03
2022-09-28T20:36:39.624Z,20.99
2022-09-28T20:39:06.459Z,20.95
2022-09-28T20:41:33.888Z,20.92
2022-09-28T20:44:05.384Z,20.88
2022-09-28T20:46:33.474Z,20.87
2022-09-28T20:49:00.521Z,20.88
2022-09-28T20:51:28.798Z,20.82
2022-09-28T20:53:57.680Z,20.80
2022-09-28T20:56:26.780Z,20.77
2022-09-28T20:58:55.187Z,20.72
2022-09-28T21:01:24.778Z,20.67
2022-09-28T21:03:54.496Z,20.60
2022-09-28T21:06:23.865Z,20.58
2022-09-28T21:08:52.665Z,20.55
2022-09-28T21:11:22.335Z,20.51
2022-09-28T21:13:54.156Z,20.51
2022-09-28T21:16:21.653Z,20.45
2022-09-28T21:18:48.629Z,20.41
2022-09-28T21:21:18.592Z,20.40
2022-09-28T21:23:46.721Z,20.34
2022-09-28T21:26:17.997Z,20.31
2022-09-28T21:28:44.923Z,20.23
2022-09-28T21:31:13.866Z,20.19
2022-09-28T21:33:40.769Z,20.09
2022-09-28T21:36:08.514Z,20.01
2022-09-28T21:38:35.390Z,20.00
2022-09-28T21:41:02.331Z,19.96
2022-09-28T21:43:31.513Z,19.97
2022-09-28T21:45:58.846Z,19.92
2022-09-28T21:48:28.175Z,19.92
2022-09-28T21:50:56.619Z,19.90
2022-09-28T21:53:24.104Z,19.87
2022-09-28T21:55:51.637Z,19.86
2022-09-28T21:58:18.572Z,19.82
2022-09-28T22:03:37.278Z,19.75
2022-09-28T22:06:05.977Z,19.73
2022-09-28T22:08:35.042Z,19.70
2022-09-28T22:13:59.510Z,19.65
2022-09-28T22:16:30.290Z,19.63
2022-09-28T22:18:57.772Z,19.61
2022-09-28T22:21:27.971Z,19.61
2022-09-28T22:23:58.330Z,19.58
2022-09-28T22:26:26.835Z,19.55
2022-09-28T22:28:56.103Z,19.55
2022-09-28T22:31:25.922Z,19.47
2022-09-28T22:33:54.645Z,19.41
2022-09-28T22:36:21.512Z,19.32
2022-09-28T22:38:49.136Z,19.28
2022-09-28T22:41:18.328Z,19.24
2022-09-28T22:43:45.262Z,19.15
2022-09-28T22:46:14.541Z,19.08
2022-09-28T22:48:41.401Z,19.03
2022-09-28T22:51:09.698Z,19.00
2022-09-28T22:53:36.505Z,19.01
2022-09-28T22:56:05.367Z,19.03
2022-09-28T22:58:32.849Z,19.04
2022-09-28T23:01:06.202Z,19.11
2022-09-28T23:03:33.184Z,19.04
2022-09-28T23:05:59.889Z,19.00
2022-09-28T23:08:28.302Z,18.96
2022-09-28T23:13:49.985Z,18.87
2022-09-28T23:16:16.900Z,18.88
2022-09-28T23:18:43.973Z,18.86
2022-09-28T23:21:13.879Z,18.86
2022-09-28T23:23:42.337Z,18.84
2022-09-28T23:26:14.582Z,18.83
2022-09-28T23:28:41.992Z,18.83
2022-09-28T23:31:11.094Z,18.83
2022-09-28T23:33:38.084Z,18.81
2022-09-28T23:36:05.903Z,18.80
2022-09-28T23:38:33.169Z,18.80
2022-09-28T23:41:01.406Z,18.81
2022-09-28T23:43:28.316Z,18.80
2022-09-28T23:45:55.156Z,18.80
2022-09-28T23:48:21.981Z,18.77
2022-09-28T23:50:48.810Z,18.76
2022-09-28T23:53:15.893Z,18.70
2022-09-28T23:55:43.477Z,18.63
2022-09-28T23:58:12.184Z,18.61
